Time;durP1;ratioP1;P1;durP2;ratioP2;P2;SDS_P1;SDS_P2;PMS_P1;PMS_P2;Temp;Humidity;BMP_temperature;BMP_pressure;BME280_temperature;BME280_humidity;BME280_pressure;Samples;Min_cycle;Max_cycle;Signal;HPM_P1;HPM_P2
2021/08/12 00:02:00;;;;;;;;;;;15.10;99.90;;;;;;5094478;28;19915;-67
2021/08/12 00:04:25;;;;;;;;;;;15.10;99.90;;;;;;5094455;28;19908;-68
2021/08/12 00:06:51;;;;;;;;;;;15.10;99.90;;;;;;5094438;28;19912;-68
2021/08/12 00:09:16;;;;;;;;;;;15.00;99.90;;;;;;5094422;28;19908;-68
2021/08/12 00:11:41;;;;;;;;;;;15.00;99.90;;;;;;5075962;28;19912;-68
2021/08/12 00:14:07;;;;;;;;;;;15.00;99.90;;;;;;5094095;28;19908;-68
2021/08/12 00:16:33;;;;;;;;;;;15.00;99.90;;;;;;5094326;28;20362;-68
2021/08/12 00:18:58;;;;;;;;;;;15.00;99.90;;;;;;5094348;28;20008;-68
2021/08/12 00:21:24;;;;;;;;;;;15.00;99.90;;;;;;5094038;28;19915;-68
2021/08/12 00:23:50;;;;;;;;;;;15.00;99.90;;;;;;5094018;28;20365;-68
2021/08/12 00:26:16;;;;;;;;;;;14.90;99.90;;;;;;5093995;28;19908;-68
2021/08/12 00:28:41;;;;;;;;;;;14.90;99.90;;;;;;5093970;28;19908;-68
2021/08/12 00:31:07;;;;;;;;;;;14.90;99.90;;;;;;5093898;28;19962;-68
2021/08/12 00:33:34;;;;;;;;;;;14.90;99.90;;;;;;5093892;28;19915;-68
2021/08/12 00:36:00;;;;;;;;;;;14.80;99.90;;;;;;5093652;28;19919;-68
2021/08/12 00:38:26;;;;;;;;;;;14.80;99.90;;;;;;5094188;28;19944;-68
2021/08/12 00:40:51;;;;;;;;;;;14.80;99.90;;;;;;5075834;28;19930;-68
2021/08/12 00:43:17;;;;;;;;;;;14.90;99.90;;;;;;5093837;28;19914;-68
2021/08/12 00:45:42;;;;;;;;;;;14.90;99.90;;;;;;5093781;28;19911;-68
2021/08/12 00:48:08;;;;;;;;;;;14.90;99.90;;;;;;5093782;28;19998;-69
2021/08/12 00:50:33;;;;;;;;;;;14.90;99.90;;;;;;5093913;28;19912;-68
2021/08/12 00:52:59;;;;;;;;;;;14.90;99.90;;;;;;5093366;28;19912;-68
2021/08/12 00:55:24;;;;;;;;;;;14.90;99.90;;;;;;5093443;28;19909;-68
2021/08/12 00:57:50;;;;;;;;;;;14.80;99.90;;;;;;5093990;28;19908;-68
2021/08/12 01:00:15;;;;;;;;;;;14.90;99.90;;;;;;5096748;28;19915;-68
2021/08/12 01:02:41;;;;;;;;;;;14.90;99.90;;;;;;5097594;28;19919;-68
2021/08/12 01:05:07;;;;;;;;;;;14.90;99.90;;;;;;5097282;28;19993;-68
2021/08/12 01:07:39;;;;;;;;;;;14.90;99.90;;;;;;5097520;28;19908;-68
2021/08/12 01:10:19;;;;;;;;;;;15.00;99.90;;;;;;5097477;28;19949;-68
2021/08/12 01:13:04;;;;;;;;;;;14.90;99.90;;;;;;5097351;28;20328;-68
2021/08/12 01:15:47;;;;;;;;;;;14.90;99.90;;;;;;5096816;28;19908;-68
2021/08/12 01:18:24;;;;;;;;;;;14.90;99.90;;;;;;5096712;28;20277;-68
2021/08/12 01:21:06;;;;;;;;;;;15.00;99.90;;;;;;5061821;28;19999;-68
2021/08/12 01:23:32;;;;;;;;;;;14.90;99.90;;;;;;5096631;28;20007;-68
2021/08/12 01:25:59;;;;;;;;;;;14.90;99.90;;;;;;5097163;28;19955;-68
2021/08/12 01:28:27;;;;;;;;;;;14.90;99.90;;;;;;5097113;28;19908;-68
2021/08/12 01:30:57;;;;;;;;;;;14.90;99.90;;;;;;5096783;28;20426;-68
2021/08/12 01:33:29;;;;;;;;;;;15.00;99.90;;;;;;5096659;28;20007;-68
2021/08/12 01:35:56;;;;;;;;;;;15.00;99.90;;;;;;5096686;28;19912;-68
2021/08/12 01:38:24;;;;;;;;;;;15.00;99.90;;;;;;5096615;28;20002;-68
2021/08/12 01:40:51;;;;;;;;;;;14.90;99.90;;;;;;5096633;28;19977;-68
2021/08/12 01:43:18;;;;;;;;;;;15.00;99.90;;;;;;5097126;28;20307;-68
2021/08/12 01:45:52;;;;;;;;;;;15.00;99.90;;;;;;5097090;28;20328;-67
2021/08/12 01:48:18;;;;;;;;;;;14.90;99.90;;;;;;5096751;28;19908;-69
2021/08/12 01:50:44;;;;;;;;;;;14.90;99.90;;;;;;5096440;28;19916;-68
2021/08/12 01:53:11;;;;;;;;;;;15.00;99.90;;;;;;5095991;28;19912;-67
2021/08/12 01:55:36;;;;;;;;;;;14.90;99.90;;;;;;5078407;28;19908;-69
2021/08/12 01:58:03;;;;;;;;;;;14.90;99.90;;;;;;5096286;28;20359;-68
2021/08/12 02:00:30;;;;;;;;;;;14.90;99.90;;;;;;5078632;28;19931;-68
2021/08/12 02:02:56;;;;;;;;;;;14.90;99.90;;;;;;5078360;28;20381;-68
2021/08/12 02:05:21;;;;;;;;;;;14.80;99.90;;;;;;5096120;28;19916;-67
2021/08/12 02:07:47;;;;;;;;;;;14.80;99.90;;;;;;5096066;28;19912;-68
2021/08/12 02:10:14;;;;;;;;;;;14.90;99.90;;;;;;5096308;28;19915;-68
2021/08/12 02:12:40;;;;;;;;;;;14.80;99.90;;;;;;5077465;28;19912;-68
2021/08/12 02:15:06;;;;;;;;;;;15.00;99.90;;;;;;5095615;28;20358;-68
2021/08/12 02:17:31;;;;;;;;;;;15.00;99.90;;;;;;5095571;28;19912;-68
2021/08/12 02:19:58;;;;;;;;;;;15.00;99.90;;;;;;5095537;28;19908;-68
2021/08/12 02:22:26;;;;;;;;;;;15.00;99.90;;;;;;5096064;28;19952;-68
2021/08/12 02:24:55;;;;;;;;;;;15.00;99.90;;;;;;5096032;28;19919;-68
2021/08/12 02:27:22;;;;;;;;;;;15.00;99.90;;;;;;5095979;28;20381;-69
2021/08/12 02:29:49;;;;;;;;;;;14.90;99.90;;;;;;5095654;28;19908;-68
2021/08/12 02:32:15;;;;;;;;;;;14.90;99.90;;;;;;5095576;28;20352;-67
2021/08/12 02:34:41;;;;;;;;;;;14.90;99.90;;;;;;5095267;28;19959;-68
2021/08/12 02:37:08;;;;;;;;;;;14.80;99.90;;;;;;5095246;28;19940;-69
2021/08/12 02:39:34;;;;;;;;;;;14.80;99.90;;;;;;5077089;28;20280;-67
2021/08/12 02:42:01;;;;;;;;;;;14.80;99.90;;;;;;5095447;28;20041;-68
2021/08/12 02:44:26;;;;;;;;;;;14.80;99.90;;;;;;5076944;28;19909;-68
2021/08/12 02:46:52;;;;;;;;;;;14.70;99.90;;;;;;5095063;28;19915;-69
2021/08/12 02:49:18;;;;;;;;;;;14.70;99.90;;;;;;5095032;28;20262;-69
2021/08/12 02:51:44;;;;;;;;;;;14.60;99.90;;;;;;5059932;28;19927;-67
2021/08/12 02:54:09;;;;;;;;;;;14.60;99.90;;;;;;5095508;28;20426;-69
2021/08/12 02:56:36;;;;;;;;;;;14.50;99.90;;;;;;5077066;28;19915;-68
2021/08/12 02:59:02;;;;;;;;;;;14.50;99.90;;;;;;5095131;28;19912;-68
2021/08/12 03:01:29;;;;;;;;;;;14.50;99.90;;;;;;5095051;28;19908;-68
2021/08/12 03:03:56;;;;;;;;;;;14.40;99.90;;;;;;5095019;28;19915;-68
2021/08/12 03:06:22;;;;;;;;;;;14.30;99.90;;;;;;5076497;28;20378;-68
2021/08/12 03:08:48;;;;;;;;;;;14.40;99.90;;;;;;5077370;28;19969;-68
2021/08/12 03:11:15;;;;;;;;;;;14.40;99.90;;;;;;5094842;28;19915;-68
2021/08/12 03:13:41;;;;;;;;;;;14.30;99.90;;;;;;5094548;28;20082;-68
2021/08/12 03:16:06;;;;;;;;;;;14.30;99.90;;;;;;5094538;28;20003;-68
2021/08/12 03:18:32;;;;;;;;;;;14.30;99.90;;;;;;5094494;28;20293;-67
2021/08/12 03:21:04;;;;;;;;;;;14.20;99.90;;;;;;5076607;28;20278;-67
2021/08/12 03:23:29;;;;;;;;;;;14.20;99.90;;;;;;5094322;28;20372;-69
2021/08/12 03:25:55;;;;;;;;;;;14.20;99.90;;;;;;5094653;28;19912;-67
2021/08/12 03:28:20;;;;;;;;;;;14.20;99.90;;;;;;5094641;28;20003;-68
2021/08/12 03:30:45;;;;;;;;;;;14.20;99.90;;;;;;5076720;28;19912;-68
2021/08/12 03:33:11;;;;;;;;;;;14.10;99.90;;;;;;5094474;28;19923;-68
2021/08/12 03:35:36;;;;;;;;;;;14.10;99.90;;;;;;5094505;28;19908;-68
2021/08/12 03:38:02;;;;;;;;;;;14.10;99.90;;;;;;5094439;28;19908;-68
2021/08/12 03:40:27;;;;;;;;;;;14.20;99.90;;;;;;5094416;28;20006;-68
2021/08/12 03:42:53;;;;;;;;;;;14.10;99.90;;;;;;5094689;28;19908;-68
2021/08/12 03:45:18;;;;;;;;;;;14.10;99.90;;;;;;5094637;28;20277;-68
2021/08/12 03:47:44;;;;;;;;;;;14.10;99.90;;;;;;5076313;28;20358;-69
2021/08/12 03:50:10;;;;;;;;;;;14.10;99.90;;;;;;5094349;28;19908;-68
2021/08/12 03:52:36;;;;;;;;;;;14.10;99.90;;;;;;5093834;28;20317;-68
2021/08/12 03:55:01;;;;;;;;;;;14.10;99.90;;;;;;5094261;28;19909;-68
2021/08/12 03:57:27;;;;;;;;;;;14.00;99.90;;;;;;5075836;28;20422;-68
2021/08/12 03:59:52;;;;;;;;;;;13.90;99.90;;;;;;5094512;28;19934;-68
2021/08/12 04:02:17;;;;;;;;;;;13.90;99.90;;;;;;5076711;28;19916;-68
2021/08/12 04:04:43;;;;;;;;;;;13.90;99.90;;;;;;5094459;28;19915;-68
2021/08/12 04:07:08;;;;;;;;;;;13.90;99.90;;;;;;5094275;28;19909;-67
2021/08/12 04:09:34;;;;;;;;;;;14.00;99.90;;;;;;5094463;28;19948;-68
2021/08/12 04:11:59;;;;;;;;;;;14.00;99.90;;;;;;5094350;28;19912;-68
2021/08/12 04:14:25;;;;;;;;;;;14.00;99.90;;;;;;5094344;28;19957;-68
2021/08/12 04:16:52;;;;;;;;;;;14.00;99.90;;;;;;5094389;28;19969;-68
2021/08/12 04:19:18;;;;;;;;;;;14.00;99.90;;;;;;5094416;28;19930;-68
2021/08/12 04:21:43;;;;;;;;;;;14.00;99.90;;;;;;5094336;28;20272;-68
2021/08/12 04:24:08;;;;;;;;;;;14.00;99.90;;;;;;5094067;28;20346;-68
2021/08/12 04:26:34;;;;;;;;;;;14.10;99.90;;;;;;5094020;28;19908;-68
2021/08/12 04:28:59;;;;;;;;;;;14.00;99.90;;;;;;5075986;28;19909;-67
2021/08/12 04:31:25;;;;;;;;;;;14.00;99.90;;;;;;5093578;28;19923;-68
2021/08/12 04:33:50;;;;;;;;;;;14.10;99.90;;;;;;5094310;28;19912;-67
2021/08/12 04:36:16;;;;;;;;;;;14.10;99.90;;;;;;5097627;28;20273;-67
2021/08/12 04:38:41;;;;;;;;;;;14.10;99.90;;;;;;5079361;28;19908;-67
2021/08/12 04:41:07;;;;;;;;;;;14.20;99.90;;;;;;5097490;28;19915;-67
2021/08/12 04:43:34;;;;;;;;;;;14.30;99.90;;;;;;5097649;28;19908;-68
2021/08/12 04:46:00;;;;;;;;;;;14.40;99.90;;;;;;5097640;28;19912;-68
2021/08/12 04:48:25;;;;;;;;;;;14.40;99.90;;;;;;5097644;28;19916;-67
2021/08/12 04:50:51;;;;;;;;;;;14.60;99.90;;;;;;5097339;28;19958;-68
2021/08/12 04:53:16;;;;;;;;;;;14.80;99.90;;;;;;5097216;28;19916;-68
2021/08/12 04:55:42;;;;;;;;;;;14.90;99.90;;;;;;5097194;28;19908;-68
2021/08/12 04:58:07;;;;;;;;;;;15.10;99.90;;;;;;5097149;28;19912;-68
2021/08/12 05:00:33;;;;;;;;;;;15.20;99.90;;;;;;5097132;28;19908;-67
2021/08/12 05:02:59;;;;;;;;;;;15.30;99.90;;;;;;5097068;28;19961;-68
2021/08/12 05:05:24;;;;;;;;;;;15.40;99.90;;;;;;5097016;28;19908;-68
2021/08/12 05:07:50;;;;;;;;;;;15.50;99.90;;;;;;5097535;28;19908;-68
2021/08/12 05:10:15;;;;;;;;;;;15.60;99.90;;;;;;5078755;28;19912;-68
2021/08/12 05:12:41;;;;;;;;;;;15.70;99.90;;;;;;5096811;28;19916;-68
2021/08/12 05:15:06;;;;;;;;;;;15.80;99.90;;;;;;5096867;28;19908;-68
2021/08/12 05:17:32;;;;;;;;;;;15.80;99.90;;;;;;5096751;28;19908;-68
2021/08/12 05:19:57;;;;;;;;;;;15.90;99.90;;;;;;5096740;28;19946;-69
2021/08/12 05:22:23;;;;;;;;;;;15.90;99.90;;;;;;5096699;28;19916;-68
2021/08/12 05:24:49;;;;;;;;;;;15.90;99.90;;;;;;5096661;28;20438;-68
2021/08/12 05:27:15;;;;;;;;;;;16.00;99.90;;;;;;5096602;28;19954;-68
2021/08/12 05:29:40;;;;;;;;;;;16.10;99.90;;;;;;5078441;28;19961;-67
2021/08/12 05:32:06;;;;;;;;;;;16.20;99.90;;;;;;5096424;28;19995;-68
2021/08/12 05:34:32;;;;;;;;;;;16.40;99.90;;;;;;5096761;28;20357;-67
2021/08/12 05:36:59;;;;;;;;;;;16.70;99.90;;;;;;5096721;28;19908;-69
2021/08/12 05:39:25;;;;;;;;;;;16.90;99.90;;;;;;5096655;28;19908;-68
2021/08/12 05:41:50;;;;;;;;;;;17.10;99.90;;;;;;5096292;28;19914;-68
2021/08/12 05:44:15;;;;;;;;;;;17.40;99.90;;;;;;5078395;28;19908;-69
2021/08/12 05:46:41;;;;;;;;;;;17.70;99.90;;;;;;5061078;28;20362;-68
2021/08/12 05:49:06;;;;;;;;;;;17.80;99.90;;;;;;5096104;28;19939;-69
2021/08/12 05:51:32;;;;;;;;;;;17.90;99.90;;;;;;5061039;28;19920;-68
2021/08/12 05:53:58;;;;;;;;;;;18.40;99.90;;;;;;5096376;28;19912;-69
2021/08/12 05:56:23;;;;;;;;;;;19.10;99.90;;;;;;5078317;28;20050;-69
2021/08/12 05:58:49;;;;;;;;;;;19.80;99.90;;;;;;5096223;28;20056;-69
2021/08/12 06:01:14;;;;;;;;;;;20.30;99.90;;;;;;5096159;28;19909;-69
2021/08/12 06:03:39;;;;;;;;;;;20.80;99.90;;;;;;5096197;28;19912;-69
2021/08/12 06:06:05;;;;;;;;;;;21.50;99.90;;;;;;5096120;28;20375;-69
2021/08/12 06:08:30;;;;;;;;;;;22.40;99.90;;;;;;5096798;28;19920;-70
2021/08/12 06:10:56;;;;;;;;;;;22.80;99.90;;;;;;5078277;28;19908;-70
2021/08/12 06:13:21;;;;;;;;;;;23.30;99.90;;;;;;5096936;28;19920;-70
2021/08/12 06:15:47;;;;;;;;;;;23.00;99.90;;;;;;5095559;28;20335;-69
2021/08/12 06:18:13;;;;;;;;;;;22.90;99.90;;;;;;5077782;28;19914;-70
2021/08/12 06:20:39;;;;;;;;;;;22.80;99.90;;;;;;5095528;28;19908;-70
2021/08/12 06:23:05;;;;;;;;;;;23.20;99.90;;;;;;5095466;28;19908;-70
2021/08/12 06:25:33;;;;;;;;;;;23.60;99.90;;;;;;5096016;28;19915;-70
2021/08/12 06:27:58;;;;;;;;;;;23.50;99.90;;;;;;5095979;28;19908;-70
2021/08/12 06:30:24;;;;;;;;;;;22.80;99.90;;;;;;5095929;28;19915;-70
2021/08/12 06:32:49;;;;;;;;;;;23.10;99.90;;;;;;5095822;28;19912;-70
2021/08/12 06:35:15;;;;;;;;;;;23.00;99.90;;;;;;5095837;28;19908;-70
2021/08/12 06:37:41;;;;;;;;;;;23.20;99.90;;;;;;5077421;28;19916;-70
2021/08/12 06:40:08;;;;;;;;;;;23.60;99.90;;;;;;5095417;28;19931;-70
2021/08/12 06:42:34;;;;;;;;;;;23.80;99.90;;;;;;5095451;28;20333;-70
2021/08/12 06:45:00;;;;;;;;;;;24.50;99.90;;;;;;5095271;28;19915;-71
2021/08/12 06:47:25;;;;;;;;;;;24.60;99.90;;;;;;5095004;28;19911;-70
2021/08/12 06:49:51;;;;;;;;;;;24.90;99.90;;;;;;5095474;28;20346;-71
2021/08/12 06:52:16;;;;;;;;;;;25.40;99.90;;;;;;5094754;28;19945;-70
2021/08/12 06:54:41;;;;;;;;;;;25.80;99.90;;;;;;5094822;28;19957;-70
2021/08/12 06:57:07;;;;;;;;;;;26.00;99.90;;;;;;5059314;28;19951;-70
2021/08/12 06:59:32;;;;;;;;;;;25.80;99.90;;;;;;5094729;28;19908;-70
2021/08/12 07:01:58;;;;;;;;;;;25.60;99.90;;;;;;5094710;28;19912;-71
2021/08/12 07:04:25;;;;;;;;;;;25.80;99.90;;;;;;5094972;28;19908;-70
2021/08/12 07:06:50;;;;;;;;;;;25.90;99.90;;;;;;5094927;28;19915;-70
2021/08/12 07:09:16;;;;;;;;;;;25.70;99.90;;;;;;5094792;28;19909;-70
2021/08/12 07:11:41;;;;;;;;;;;25.90;99.90;;;;;;5094755;28;19916;-72
2021/08/12 07:14:07;;;;;;;;;;;26.20;99.90;;;;;;5094572;28;20270;-69
2021/08/12 07:16:32;;;;;;;;;;;27.30;99.90;;;;;;5094416;28;20285;-71
2021/08/12 07:18:57;;;;;;;;;;;27.20;99.90;;;;;;5094476;28;20319;-68
2021/08/12 07:21:23;;;;;;;;;;;26.90;99.90;;;;;;5094452;28;20273;-70
2021/08/12 07:23:49;;;;;;;;;;;27.40;99.90;;;;;;5094384;28;20285;-70
2021/08/12 07:26:15;;;;;;;;;;;27.40;99.90;;;;;;5094344;28;20357;-70
2021/08/12 07:28:41;;;;;;;;;;;27.10;99.90;;;;;;5094329;28;19908;-70
2021/08/12 07:31:08;;;;;;;;;;;27.40;99.90;;;;;;5094269;28;19908;-70
2021/08/12 07:33:34;;;;;;;;;;;27.70;99.90;;;;;;5076010;28;19961;-70
2021/08/12 07:35:59;;;;;;;;;;;27.90;99.90;;;;;;5076060;28;19912;-70
2021/08/12 07:38:37;;;;;;;;;;;28.50;99.90;;;;;;5094078;28;20010;-70
2021/08/12 07:41:03;;;;;;;;;;;28.10;99.90;;;;;;5076382;28;19915;-70
2021/08/12 07:43:29;;;;;;;;;;;27.40;99.90;;;;;;5076475;28;19909;-70
2021/08/12 07:45:54;;;;;;;;;;;27.90;99.90;;;;;;5094058;28;19908;-70
2021/08/12 07:48:20;;;;;;;;;;;28.20;99.90;;;;;;5094034;28;19908;-70
2021/08/12 07:50:46;;;;;;;;;;;28.60;99.90;;;;;;5094298;28;19917;-70
2021/08/12 07:53:12;;;;;;;;;;;27.90;99.90;;;;;;5093869;28;19951;-70
2021/08/12 07:55:37;;;;;;;;;;;27.70;99.90;;;;;;5094493;28;19957;-70
2021/08/12 07:58:03;;;;;;;;;;;28.10;99.90;;;;;;5075833;28;19914;-71
2021/08/12 08:00:29;;;;;;;;;;;28.30;99.90;;;;;;5093850;28;19915;-70
2021/08/12 08:02:54;;;;;;;;;;;27.60;99.90;;;;;;5093818;28;19908;-70
2021/08/12 08:05:21;;;;;;;;;;;27.40;99.90;;;;;;5093814;28;19909;-70
2021/08/12 08:07:47;;;;;;;;;;;27.90;99.90;;;;;;5076848;28;19912;-71
2021/08/12 08:10:14;;;;;;;;;;;28.20;99.90;;;;;;5079888;28;19912;-70
2021/08/12 08:12:42;;;;;;;;;;;28.40;99.90;;;;;;5097806;28;19912;-70
2021/08/12 08:15:07;;;;;;;;;;;28.50;99.90;;;;;;5097789;28;20373;-70
2021/08/12 08:17:33;;;;;;;;;;;28.50;99.90;;;;;;5097756;28;19908;-71
2021/08/12 08:19:59;;;;;;;;;;;28.80;99.90;;;;;;5097137;28;20046;-70
2021/08/12 08:22:25;;;;;;;;;;;29.10;99.90;;;;;;5096036;28;19919;-70
2021/08/12 08:24:50;;;;;;;;;;;30.10;99.90;;;;;;5097243;28;20273;-70
2021/08/12 08:27:16;;;;;;;;;;;29.70;99.90;;;;;;5097712;28;19915;-70
2021/08/12 08:29:41;;;;;;;;;;;28.80;99.90;;;;;;5097223;28;19912;-70
2021/08/12 08:32:08;;;;;;;;;;;28.70;99.90;;;;;;5097266;28;19920;-71
2021/08/12 08:34:33;;;;;;;;;;;28.50;99.90;;;;;;5077734;28;20297;-70
2021/08/12 08:36:58;;;;;;;;;;;28.70;99.90;;;;;;5096633;28;20012;-71
2021/08/12 08:39:24;;;;;;;;;;;29.40;99.90;;;;;;5096368;28;19912;-71
2021/08/12 08:41:50;;;;;;;;;;;29.90;99.90;;;;;;5097245;28;19978;-70
2021/08/12 08:44:17;;;;;;;;;;;29.20;99.90;;;;;;5097657;28;20405;-70
2021/08/12 08:46:43;;;;;;;;;;;29.00;99.90;;;;;;5079097;28;19995;-70
2021/08/12 08:49:11;;;;;;;;;;;29.50;99.90;;;;;;5097927;28;19962;-70
2021/08/12 08:51:37;;;;;;;;;;;29.30;99.90;;;;;;5097313;28;19920;-70
2021/08/12 08:54:03;;;;;;;;;;;29.50;99.90;;;;;;5097168;28;20425;-70
2021/08/12 08:56:29;;;;;;;;;;;30.30;99.90;;;;;;5097357;28;19908;-70
2021/08/12 08:58:54;;;;;;;;;;;30.50;99.60;;;;;;5097092;28;19977;-70
2021/08/12 09:01:20;;;;;;;;;;;30.70;99.60;;;;;;5097327;28;19915;-70
2021/08/12 09:03:45;;;;;;;;;;;30.80;99.30;;;;;;5097301;28;19908;-70
2021/08/12 09:06:11;;;;;;;;;;;30.50;99.90;;;;;;5096877;28;20581;-70
2021/08/12 09:08:36;;;;;;;;;;;30.50;99.10;;;;;;5096495;28;19908;-70
2021/08/12 09:11:02;;;;;;;;;;;30.40;99.90;;;;;;5096202;28;20005;-70
2021/08/12 09:13:28;;;;;;;;;;;30.50;99.60;;;;;;5096133;28;19995;-70
2021/08/12 09:15:54;;;;;;;;;;;30.20;99.80;;;;;;5096737;28;19908;-70
2021/08/12 09:18:27;;;;;;;;;;;30.60;99.40;;;;;;5096630;28;19908;-70
2021/08/12 09:20:54;;;;;;;;;;;30.00;99.50;;;;;;5095921;28;19931;-70
2021/08/12 09:23:22;;;;;;;;;;;29.60;99.90;;;;;;5095986;28;19920;-70
2021/08/12 09:25:49;;;;;;;;;;;29.80;99.90;;;;;;5096469;28;19915;-70
2021/08/12 09:28:19;;;;;;;;;;;30.40;99.80;;;;;;5096986;28;19908;-70
2021/08/12 09:30:46;;;;;;;;;;;30.20;99.30;;;;;;5096191;28;19919;-70
2021/08/12 09:33:14;;;;;;;;;;;30.30;99.30;;;;;;5095517;28;19965;-70
2021/08/12 09:35:39;;;;;;;;;;;29.70;99.90;;;;;;5095359;28;19916;-70
2021/08/12 09:38:08;;;;;;;;;;;30.10;99.30;;;;;;5104180;28;19913;-70
2021/08/12 09:40:34;;;;;;;;;;;29.90;99.80;;;;;;5096307;28;20339;-70
2021/08/12 09:43:01;;;;;;;;;;;29.70;99.90;;;;;;5078030;28;19909;-70
2021/08/12 09:45:27;;;;;;;;;;;29.50;99.90;;;;;;5095674;28;19954;-70
2021/08/12 09:47:53;;;;;;;;;;;30.20;99.90;;;;;;5095280;28;19919;-70
2021/08/12 09:50:22;;;;;;;;;;;30.70;99.70;;;;;;5078413;28;20281;-70
2021/08/12 09:52:48;;;;;;;;;;;30.20;98.30;;;;;;5095729;28;19924;-70
2021/08/12 09:55:18;;;;;;;;;;;29.80;99.20;;;;;;5095728;28;20321;-70
2021/08/12 10:03:19;;;;;;;;;;;30.60;98.70;;;;;;5092329;27;19919;-70
2021/08/12 10:05:44;;;;;;;;;;;31.20;97.60;;;;;;5091407;28;19921;-69
2021/08/12 10:08:10;;;;;;;;;;;31.00;98.20;;;;;;5090317;28;20423;-70
2021/08/12 10:10:35;;;;;;;;;;;31.00;98.40;;;;;;5091207;28;19934;-70
2021/08/12 10:13:01;;;;;;;;;;;31.30;98.30;;;;;;5089955;28;19931;-70
2021/08/12 10:15:28;;;;;;;;;;;31.20;97.90;;;;;;5091145;28;19991;-71
2021/08/12 10:17:54;;;;;;;;;;;31.00;98.30;;;;;;5091637;28;19912;-71
2021/08/12 10:20:29;;;;;;;;;;;30.00;99.00;;;;;;5091132;28;19916;-71
2021/08/12 10:22:55;;;;;;;;;;;30.00;98.90;;;;;;5090960;28;19958;-71
2021/08/12 10:25:21;;;;;;;;;;;30.80;98.70;;;;;;5089740;28;19916;-71
2021/08/12 10:27:47;;;;;;;;;;;31.40;97.30;;;;;;5090881;28;20258;-71
2021/08/12 10:30:14;;;;;;;;;;;30.80;98.50;;;;;;5090797;28;19915;-71
2021/08/12 10:32:45;;;;;;;;;;;30.70;98.70;;;;;;5091312;28;19938;-71
2021/08/12 10:35:11;;;;;;;;;;;30.50;98.90;;;;;;5090698;28;19916;-71
2021/08/12 10:37:36;;;;;;;;;;;30.30;98.40;;;;;;5090561;28;19908;-71
2021/08/12 10:40:02;;;;;;;;;;;30.20;98.80;;;;;;5123628;28;19931;-71
2021/08/12 10:42:28;;;;;;;;;;;30.50;98.80;;;;;;5090737;28;19955;-71
2021/08/12 10:44:54;;;;;;;;;;;30.80;98.50;;;;;;5090820;28;19923;-71
2021/08/12 10:47:40;;;;;;;;;;;30.70;98.80;;;;;;5090878;28;19909;-71
2021/08/12 10:50:26;;;;;;;;;;;30.30;99.10;;;;;;5090428;28;19958;-71
2021/08/12 10:53:11;;;;;;;;;;;30.50;99.00;;;;;;5091036;28;19913;-71
2021/08/12 11:01:00;;;;;;;;;;;29.50;99.90;;;;;;5091406;27;20261;-70
2021/08/12 11:03:43;;;;;;;;;;;29.60;98.90;;;;;;5091616;28;20362;-72
2021/08/12 11:06:17;;;;;;;;;;;29.00;98.50;;;;;;5091631;28;20263;-72
2021/08/12 11:08:53;;;;;;;;;;;28.80;99.10;;;;;;5091262;28;20033;-71
2021/08/12 11:14:07;;;;;;;;;;;28.90;99.90;;;;;;5092107;28;19919;-69
2021/08/12 11:16:52;;;;;;;;;;;29.10;99.90;;;;;;5090134;28;19913;-69
2021/08/12 11:21:59;;;;;;;;;;;28.30;99.90;;;;;;5092183;27;20380;-70
2021/08/12 11:27:04;;;;;;;;;;;28.50;99.90;;;;;;5092203;27;19912;-70
2021/08/12 11:29:33;;;;;;;;;;;29.30;99.50;;;;;;5091899;28;19962;-69
2021/08/12 11:31:59;;;;;;;;;;;28.80;99.70;;;;;;5089994;28;20327;-69
2021/08/12 11:34:46;;;;;;;;;;;28.90;98.50;;;;;;5091575;28;19912;-71
2021/08/12 11:37:20;;;;;;;;;;;28.50;99.90;;;;;;5091400;28;20258;-69
2021/08/12 11:39:51;;;;;;;;;;;28.70;99.90;;;;;;5091710;28;20344;-70
2021/08/12 11:42:37;;;;;;;;;;;28.80;98.80;;;;;;5124119;28;19999;-70
2021/08/12 11:45:06;;;;;;;;;;;28.10;99.90;;;;;;5090963;28;19913;-71
2021/08/12 11:47:31;;;;;;;;;;;28.30;99.90;;;;;;5091057;28;19908;-70
2021/08/12 11:49:57;;;;;;;;;;;28.70;99.90;;;;;;5090956;28;20002;-69
2021/08/12 11:52:24;;;;;;;;;;;28.80;99.30;;;;;;5090940;28;19954;-71
2021/08/12 11:54:53;;;;;;;;;;;28.30;98.40;;;;;;5091196;28;19953;-71
2021/08/12 11:57:19;;;;;;;;;;;28.50;98.90;;;;;;5091083;28;19916;-68
2021/08/12 11:59:44;;;;;;;;;;;28.20;99.30;;;;;;5123954;28;19912;-71
2021/08/12 12:02:10;;;;;;;;;;;28.00;99.20;;;;;;5091057;28;19997;-70
2021/08/12 12:04:36;;;;;;;;;;;28.50;99.90;;;;;;5091192;28;20013;-69
2021/08/12 12:07:01;;;;;;;;;;;29.00;99.90;;;;;;5090929;28;19915;-70
2021/08/12 12:09:28;;;;;;;;;;;29.10;98.60;;;;;;5090934;28;19956;-70
2021/08/12 12:11:56;;;;;;;;;;;28.80;98.80;;;;;;5090655;28;19922;-71
2021/08/12 12:14:24;;;;;;;;;;;28.40;99.30;;;;;;5090472;28;19908;-71
2021/08/12 12:17:10;;;;;;;;;;;28.60;99.70;;;;;;5090450;28;19908;-70
2021/08/12 12:19:36;;;;;;;;;;;28.30;99.80;;;;;;5089128;28;19915;-69
2021/08/12 12:22:02;;;;;;;;;;;28.10;99.90;;;;;;5090417;28;20411;-70
2021/08/12 12:24:28;;;;;;;;;;;28.60;99.90;;;;;;5090632;28;19999;-70
2021/08/12 12:26:56;;;;;;;;;;;28.70;99.90;;;;;;5109506;28;20353;-70
2021/08/12 12:29:22;;;;;;;;;;;28.70;99.90;;;;;;5110642;28;19913;-70
2021/08/12 12:31:56;;;;;;;;;;;28.70;99.90;;;;;;5111036;28;19908;-70
2021/08/12 12:34:22;;;;;;;;;;;28.30;99.60;;;;;;5110435;28;20304;-70
2021/08/12 12:36:48;;;;;;;;;;;28.10;99.90;;;;;;5106241;28;19908;-70
2021/08/12 12:39:13;;;;;;;;;;;28.20;99.90;;;;;;5097082;28;19908;-70
2021/08/12 12:41:39;;;;;;;;;;;28.40;99.50;;;;;;5097358;28;19912;-71
2021/08/12 12:44:07;;;;;;;;;;;28.20;99.90;;;;;;5097336;28;19912;-71
2021/08/12 12:46:33;;;;;;;;;;;28.20;99.80;;;;;;5097178;28;19912;-71
2021/08/12 12:49:18;;;;;;;;;;;27.90;99.00;;;;;;5097249;28;19936;-71
2021/08/12 12:51:44;;;;;;;;;;;28.10;99.80;;;;;;5096525;28;19916;-71
2021/08/12 12:54:09;;;;;;;;;;;28.40;99.30;;;;;;5096580;28;19912;-72
2021/08/12 12:56:35;;;;;;;;;;;28.60;98.60;;;;;;5096492;28;19914;-72
2021/08/12 12:59:09;;;;;;;;;;;29.00;98.60;;;;;;5096498;28;19914;-72
2021/08/12 13:01:35;;;;;;;;;;;28.70;99.10;;;;;;5078330;28;19931;-72
2021/08/12 13:04:02;;;;;;;;;;;28.80;99.30;;;;;;5096388;28;20284;-71
2021/08/12 13:06:43;;;;;;;;;;;28.50;98.70;;;;;;5096290;28;19912;-71
2021/08/12 13:09:29;;;;;;;;;;;28.30;99.30;;;;;;5078159;28;20007;-72
2021/08/12 13:11:54;;;;;;;;;;;28.60;98.50;;;;;;5096225;28;19912;-72
2021/08/12 13:14:20;;;;;;;;;;;28.50;99.10;;;;;;5096199;28;20251;-71
2021/08/12 13:16:46;;;;;;;;;;;28.50;99.40;;;;;;5096323;28;20372;-71
2021/08/12 13:19:20;;;;;;;;;;;28.50;99.50;;;;;;5096391;28;19952;-70
2021/08/12 13:21:46;;;;;;;;;;;28.50;98.40;;;;;;5096336;28;20000;-70
2021/08/12 13:24:13;;;;;;;;;;;28.20;98.40;;;;;;5077880;28;19930;-70
2021/08/12 13:26:40;;;;;;;;;;;28.00;98.10;;;;;;5077484;28;20393;-70
2021/08/12 13:31:48;;;;;;;;;;;28.10;98.00;;;;;;5092243;27;20370;-69
2021/08/12 13:34:13;;;;;;;;;;;28.40;98.10;;;;;;5091958;28;19962;-72
2021/08/12 13:36:39;;;;;;;;;;;28.30;98.40;;;;;;5090285;28;19909;-70
2021/08/12 13:39:05;;;;;;;;;;;28.40;98.00;;;;;;5090288;28;19917;-70
2021/08/12 13:41:30;;;;;;;;;;;28.20;98.20;;;;;;5090001;28;19958;-71
2021/08/12 13:43:56;;;;;;;;;;;28.00;98.10;;;;;;5091198;28;19912;-71
2021/08/12 13:46:22;;;;;;;;;;;28.30;98.90;;;;;;5089703;28;20007;-71
2021/08/12 13:48:47;;;;;;;;;;;28.20;98.10;;;;;;5091136;28;20353;-70
2021/08/12 13:51:13;;;;;;;;;;;27.70;99.20;;;;;;5091300;28;19943;-71
2021/08/12 13:53:38;;;;;;;;;;;27.40;99.10;;;;;;5090956;28;19915;-71
2021/08/12 13:56:04;;;;;;;;;;;27.40;99.80;;;;;;5089544;28;20388;-71
2021/08/12 13:58:29;;;;;;;;;;;27.40;99.90;;;;;;5090808;28;19953;-70
2021/08/12 14:00:55;;;;;;;;;;;27.50;99.90;;;;;;5090881;28;19915;-71
2021/08/12 14:03:21;;;;;;;;;;;27.60;99.90;;;;;;5090850;28;19909;-71
2021/08/12 14:05:47;;;;;;;;;;;27.70;99.90;;;;;;5090821;28;19917;-71
2021/08/12 14:08:15;;;;;;;;;;;27.90;99.90;;;;;;5090761;28;19934;-70
2021/08/12 14:10:41;;;;;;;;;;;27.80;99.20;;;;;;5090493;28;19979;-68
2021/08/12 14:13:07;;;;;;;;;;;27.80;99.50;;;;;;5088412;28;20392;-70
2021/08/12 14:15:32;;;;;;;;;;;27.90;99.90;;;;;;5088828;28;19913;-71
2021/08/12 14:17:57;;;;;;;;;;;27.90;99.70;;;;;;5088530;28;19915;-68
2021/08/12 14:20:23;;;;;;;;;;;27.90;99.90;;;;;;5088465;28;19936;-70
2021/08/12 14:22:48;;;;;;;;;;;28.00;99.40;;;;;;5088426;28;20285;-71
2021/08/12 14:25:14;;;;;;;;;;;28.10;98.80;;;;;;5088338;28;19908;-70
2021/08/12 14:27:41;;;;;;;;;;;27.80;99.40;;;;;;5088606;28;19909;-70
2021/08/12 14:30:07;;;;;;;;;;;27.60;99.50;;;;;;5096948;28;19973;-70
2021/08/12 14:32:32;;;;;;;;;;;27.50;98.50;;;;;;5110702;28;19908;-70
2021/08/12 14:34:58;;;;;;;;;;;27.80;99.90;;;;;;5110600;28;20053;-70
2021/08/12 14:37:23;;;;;;;;;;;27.90;98.40;;;;;;5110584;28;19915;-70